Austin, Texas
Current Conditions -  °F | °C
As of 8:51 PM on Friday 21 Nov 2014 (Local Time) from KATT Reporting Station
Overcast Overcast  
Wind Chill: 19°   Ceiling: 3500
Heat Index: 19°   Visibility: 10mi
Dew Point: 19°   Wind: 8mph
Humidity: 97%   Direction: 140°SE
Pressure: 30.08"   Gusts: NA
Location:  30.27°N, 97.74°W
Report Text: KATT 220251Z AUTO 14007KT 10SM SCT012 SCT018 OVC035 19/19 A3008 RMK AO2 SLP179 60003 T01940189 53019
Loading
Personal Weather Stations






























Interactive Weather Map New forecast layout! Learn more

10-Day Weather Forecast

Advertisements
Track Severe Weather on mobile